beobank.be alexa rank chart, beobank.be alexa rank daily changes

beobank.be alexa rank chart, beobank.be alexa rank daily changes

beobank.be
Actual rank:
40 659

RANK HISTORY

Date Rank Diff
2018/10/20 40 659 -17 799
2018/10/19 58 458 -5 935
2018/10/18 64 393 +9 646
2018/10/17 54 747 -2 073
2018/10/16 56 820 -1 894
2018/10/15 58 714 +7 809
2018/10/14 50 905 -5 123
2018/10/13 56 028 -3 925
2018/10/12 59 953 +7 575
2018/10/11 52 378 +14 082
2018/10/10 38 296 -58 753
2018/10/09 97 049 -4 994
2018/10/08 102 043 +59 520
2018/10/07 42 523 -23 285
2018/10/06 65 808 -9 196
2018/10/05 75 004 +41 493
2018/10/04 33 511 -5 537
2018/10/03 39 048 -22 353
2018/10/02 61 401 +11 514
2018/10/01 49 887 +6 651
2018/09/30 43 236 -6 118
2018/09/29 49 354 +14 163
2018/09/28 35 191 -4 558
2018/09/27 39 749 -4 798
2018/09/26 44 547 -10 273
2018/09/25 54 820 -8 684
2018/09/24 63 504 +9 920
2018/09/23 53 584 -6 026
2018/09/22 59 610 +15 430
2018/09/21 44 180 +2 321
2018/09/20 41 859 +459
2018/09/19 41 400 -17 442
2018/09/18 58 842 -23 787
2018/09/17 82 629 +23 365
2018/09/16 59 264 +19 254
2018/09/15 40 010 +4 255
2018/09/14 35 755 -21 755
2018/09/13 57 510 +12 265
2018/09/12 45 245 -74 281
2018/09/11 119 526 +60 705
2018/09/10 58 821 +8 666
2018/09/09 50 155 +18 324
2018/09/08 31 831 -11 850
2018/09/07 43 681 +9 275
2018/09/06 34 406 -19 752
2018/09/05 54 158 +14 029
2018/09/04 40 129 -32 683
2018/09/03 72 812 +42 470
2018/09/02 30 342 -44 094
2018/09/01 74 436 +37 403
2018/08/31 37 033 -16 233
2018/08/30 53 266 +7 577
2018/08/29 45 689 -28 825
2018/08/28 74 514 -11 319
2018/08/27 85 833 +47 183
2018/08/26 38 650 -17 006
2018/08/25 55 656 +6 773
2018/08/24 48 883 -5 552
2018/08/23 54 435 -1 351
2018/08/22 55 786 -240 808
2018/08/21 296 594 +238 295
2018/08/20 58 299

WIDGET FOR YOUR SITE

DOMAINS WITH THE NEAREST RANK

Domain Rank
subitup.com 40 654
thenipslip.com 40 655
comune.milano.it 40 656
ccs.com 40 657
marksdailyapple.com 40 658
beobank.be 40 659
mycard520.com.tw 40 660
clip2net.com 40 661
humankinetics.com 40 662
yanxx.com 40 663
impact.com 40 664

DOMAINS WITH THE NEAREST RANK BY TLD .be

Domain Rank
kinepolis.be 39 355
camer.be 39 483
lidl-shop.be 39 571
meteovista.be 39 744
delijn.be 39 801
beobank.be 40 659
vier.be 41 720
een.be 41 800
youtu.be 41 856
vub.be 42 481
alternate.be 42 606